sensor_id;sensor_type;location;lat;lon;timestamp;pressure;altitude;pressure_sealevel;temperature;humidity
38786;BME280;24535;45.508;12.252;2022-09-21T00:00:48;101869.19;;;19.36;54.19
38786;BME280;24535;45.508;12.252;2022-09-21T00:03:14;101864.41;;;19.30;54.39
38786;BME280;24535;45.508;12.252;2022-09-21T00:05:40;101870.13;;;19.25;54.52
38786;BME280;24535;45.508;12.252;2022-09-21T00:08:07;101874.06;;;19.21;54.11
38786;BME280;24535;45.508;12.252;2022-09-21T00:10:32;101883.75;;;19.22;53.65
38786;BME280;24535;45.508;12.252;2022-09-21T00:12:59;101885.59;;;19.21;53.95
38786;BME280;24535;45.508;12.252;2022-09-21T00:15:28;101886.56;;;19.20;52.69
38786;BME280;24535;45.508;12.252;2022-09-21T00:17:55;101889.09;;;19.22;52.81
38786;BME280;24535;45.508;12.252;2022-09-21T00:20:22;101890.09;;;19.21;52.85
38786;BME280;24535;45.508;12.252;2022-09-21T00:22:49;101896.28;;;19.21;53.06
38786;BME280;24535;45.508;12.252;2022-09-21T00:25:16;101899.53;;;19.25;52.96
38786;BME280;24535;45.508;12.252;2022-09-21T00:27:41;101906.41;;;19.27;53.06
38786;BME280;24535;45.508;12.252;2022-09-21T00:30:07;101902.06;;;19.26;52.54
38786;BME280;24535;45.508;12.252;2022-09-21T00:32:36;101907.00;;;19.31;52.84
38786;BME280;24535;45.508;12.252;2022-09-21T00:35:03;101913.19;;;19.32;52.27
38786;BME280;24535;45.508;12.252;2022-09-21T00:37:29;101917.69;;;19.31;52.91
38786;BME280;24535;45.508;12.252;2022-09-21T00:39:55;101927.41;;;19.32;52.09
38786;BME280;24535;45.508;12.252;2022-09-21T00:42:32;101919.38;;;19.32;52.53
38786;BME280;24535;45.508;12.252;2022-09-21T00:44:58;101928.00;;;19.36;52.85
38786;BME280;24535;45.508;12.252;2022-09-21T00:47:34;101927.03;;;19.37;52.68
38786;BME280;24535;45.508;12.252;2022-09-21T00:50:13;101932.25;;;19.38;53.26
38786;BME280;24535;45.508;12.252;2022-09-21T00:52:47;101932.25;;;19.38;53.23
38786;BME280;24535;45.508;12.252;2022-09-21T00:55:37;101950.41;;;19.44;52.92
38786;BME280;24535;45.508;12.252;2022-09-21T00:58:11;101963.66;;;19.46;53.25
38786;BME280;24535;45.508;12.252;2022-09-21T01:00:40;101969.00;;;19.46;53.64
38786;BME280;24535;45.508;12.252;2022-09-21T01:03:08;101977.63;;;19.49;53.86
38786;BME280;24535;45.508;12.252;2022-09-21T01:05:34;101978.56;;;19.48;53.70
38786;BME280;24535;45.508;12.252;2022-09-21T01:08:01;101976.63;;;19.50;54.38
38786;BME280;24535;45.508;12.252;2022-09-21T01:10:34;101978.47;;;19.50;54.26
38786;BME280;24535;45.508;12.252;2022-09-21T01:18:39;101982.69;;;19.52;55.25
38786;BME280;24535;45.508;12.252;2022-09-21T01:21:20;101968.63;;;19.50;55.73
38786;BME280;24535;45.508;12.252;2022-09-21T01:29:40;101934.44;;;19.54;56.82
38786;BME280;24535;45.508;12.252;2022-09-21T01:32:33;101935.44;;;19.53;56.98
38786;BME280;24535;45.508;12.252;2022-09-21T01:35:05;101942.47;;;19.54;57.11
38786;BME280;24535;45.508;12.252;2022-09-21T01:37:56;101947.09;;;19.52;57.51
38786;BME280;24535;45.508;12.252;2022-09-21T01:40:24;101952.84;;;19.47;57.54
38786;BME280;24535;45.508;12.252;2022-09-21T01:42:53;101960.66;;;19.39;56.68
38786;BME280;24535;45.508;12.252;2022-09-21T01:45:24;101949.75;;;19.31;56.99
38786;BME280;24535;45.508;12.252;2022-09-21T01:47:54;101941.53;;;19.23;57.39
38786;BME280;24535;45.508;12.252;2022-09-21T01:50:21;101937.19;;;19.22;57.42
38786;BME280;24535;45.508;12.252;2022-09-21T01:52:49;101925.53;;;19.23;58.33
38786;BME280;24535;45.508;12.252;2022-09-21T01:55:28;101915.44;;;19.26;58.74
38786;BME280;24535;45.508;12.252;2022-09-21T01:58:01;101924.88;;;19.31;58.82
38786;BME280;24535;45.508;12.252;2022-09-21T02:00:31;101925.97;;;19.28;58.64
38786;BME280;24535;45.508;12.252;2022-09-21T02:03:01;101921.09;;;19.33;59.58
38786;BME280;24535;45.508;12.252;2022-09-21T02:05:29;101924.03;;;19.30;58.25
38786;BME280;24535;45.508;12.252;2022-09-21T02:07:56;101930.94;;;19.33;58.70
38786;BME280;24535;45.508;12.252;2022-09-21T02:10:29;101937.59;;;19.38;59.07
38786;BME280;24535;45.508;12.252;2022-09-21T02:13:01;101939.91;;;19.52;59.25
38786;BME280;24535;45.508;12.252;2022-09-21T02:16:17;101936.25;;;19.65;59.01
38786;BME280;24535;45.508;12.252;2022-09-21T02:18:24;101939.66;;;19.76;59.07
38786;BME280;24535;45.508;12.252;2022-09-21T02:20:57;101946.31;;;19.82;58.20
38786;BME280;24535;45.508;12.252;2022-09-21T02:23:32;101953.75;;;19.79;58.39
38786;BME280;24535;45.508;12.252;2022-09-21T02:28:38;101957.72;;;19.84;58.00
38786;BME280;24535;45.508;12.252;2022-09-21T02:34:29;101948.41;;;19.79;58.48
38786;BME280;24535;45.508;12.252;2022-09-21T02:37:03;101949.50;;;19.76;58.17
38786;BME280;24535;45.508;12.252;2022-09-21T02:39:58;101960.41;;;19.84;57.85
38786;BME280;24535;45.508;12.252;2022-09-21T02:42:25;101957.31;;;19.89;57.15
38786;BME280;24535;45.508;12.252;2022-09-21T02:47:41;101955.22;;;19.92;57.13
38786;BME280;24535;45.508;12.252;2022-09-21T02:50:14;101948.00;;;19.83;56.80
38786;BME280;24535;45.508;12.252;2022-09-21T02:52:42;101949.13;;;19.81;57.02
38786;BME280;24535;45.508;12.252;2022-09-21T02:55:09;101946.41;;;19.71;57.00
38786;BME280;24535;45.508;12.252;2022-09-21T02:57:36;101949.91;;;19.71;56.79
38786;BME280;24535;45.508;12.252;2022-09-21T03:00:04;101955.81;;;19.65;57.07
38786;BME280;24535;45.508;12.252;2022-09-21T03:02:41;101947.69;;;19.56;57.25
38786;BME280;24535;45.508;12.252;2022-09-21T03:05:08;101953.81;;;19.46;56.98
38786;BME280;24535;45.508;12.252;2022-09-21T03:07:34;101959.09;;;19.37;56.86
38786;BME280;24535;45.508;12.252;2022-09-21T03:10:00;101956.59;;;19.24;56.98
38786;BME280;24535;45.508;12.252;2022-09-21T03:12:25;101969.41;;;19.20;57.49
38786;BME280;24535;45.508;12.252;2022-09-21T03:14:52;101965.13;;;19.18;57.52
38786;BME280;24535;45.508;12.252;2022-09-21T03:17:18;101965.38;;;19.15;57.51
38786;BME280;24535;45.508;12.252;2022-09-21T03:19:43;101963.09;;;19.10;57.57
38786;BME280;24535;45.508;12.252;2022-09-21T03:22:08;101964.59;;;19.03;57.78
38786;BME280;24535;45.508;12.252;2022-09-21T03:24:34;101972.97;;;18.98;58.17
38786;BME280;24535;45.508;12.252;2022-09-21T03:27:25;101977.97;;;18.92;57.01
38786;BME280;24535;45.508;12.252;2022-09-21T03:29:52;101975.56;;;18.89;58.11
38786;BME280;24535;45.508;12.252;2022-09-21T03:32:17;101987.34;;;18.86;57.71
38786;BME280;24535;45.508;12.252;2022-09-21T03:34:42;101987.34;;;18.86;57.71
38786;BME280;24535;45.508;12.252;2022-09-21T03:37:09;101988.09;;;18.88;57.87
38786;BME280;24535;45.508;12.252;2022-09-21T03:39:35;101987.94;;;18.90;57.69
38786;BME280;24535;45.508;12.252;2022-09-21T03:42:00;101982.00;;;18.86;57.07
38786;BME280;24535;45.508;12.252;2022-09-21T03:44:27;101990.88;;;18.87;57.44
38786;BME280;24535;45.508;12.252;2022-09-21T03:46:52;101991.00;;;18.85;57.14
38786;BME280;24535;45.508;12.252;2022-09-21T03:49:18;102002.91;;;18.81;57.27
38786;BME280;24535;45.508;12.252;2022-09-21T03:51:44;101997.09;;;18.76;56.98
38786;BME280;24535;45.508;12.252;2022-09-21T03:54:10;102005.97;;;18.76;56.74
38786;BME280;24535;45.508;12.252;2022-09-21T03:56:35;102008.88;;;18.73;56.71
38786;BME280;24535;45.508;12.252;2022-09-21T03:59:01;102011.88;;;18.69;56.93
38786;BME280;24535;45.508;12.252;2022-09-21T04:01:26;102013.81;;;18.67;56.61
38786;BME280;24535;45.508;12.252;2022-09-21T04:03:52;102019.03;;;18.68;57.02
38786;BME280;24535;45.508;12.252;2022-09-21T04:06:18;102019.69;;;18.72;56.18
38786;BME280;24535;45.508;12.252;2022-09-21T04:08:43;102017.22;;;18.69;56.92
38786;BME280;24535;45.508;12.252;2022-09-21T04:11:14;102015.63;;;18.66;56.90
38786;BME280;24535;45.508;12.252;2022-09-21T04:13:40;102021.09;;;18.65;56.56
38786;BME280;24535;45.508;12.252;2022-09-21T04:16:10;102015.16;;;18.61;56.53
38786;BME280;24535;45.508;12.252;2022-09-21T04:18:36;102020.50;;;18.61;56.67
38786;BME280;24535;45.508;12.252;2022-09-21T04:21:03;102016.25;;;18.59;56.56
38786;BME280;24535;45.508;12.252;2022-09-21T04:23:29;102019.06;;;18.57;56.09
38786;BME280;24535;45.508;12.252;2022-09-21T04:25:54;102028.03;;;18.56;56.45
38786;BME280;24535;45.508;12.252;2022-09-21T04:28:21;102025.84;;;18.50;55.68
38786;BME280;24535;45.508;12.252;2022-09-21T04:30:51;102025.13;;;18.48;56.87
38786;BME280;24535;45.508;12.252;2022-09-21T04:33:18;102018.56;;;18.41;56.07
38786;BME280;24535;45.508;12.252;2022-09-21T04:35:44;102022.31;;;18.38;56.30
38786;BME280;24535;45.508;12.252;2022-09-21T04:38:09;102027.41;;;18.30;56.28
38786;BME280;24535;45.508;12.252;2022-09-21T04:40:35;102028.88;;;18.23;56.45
38786;BME280;24535;45.508;12.252;2022-09-21T04:43:00;102031.81;;;18.20;56.47
38786;BME280;24535;45.508;12.252;2022-09-21T04:45:26;102031.19;;;18.16;57.00
38786;BME280;24535;45.508;12.252;2022-09-21T04:47:51;102033.09;;;18.14;56.25
38786;BME280;24535;45.508;12.252;2022-09-21T04:50:17;102048.03;;;18.17;56.25
38786;BME280;24535;45.508;12.252;2022-09-21T04:52:43;102039.56;;;18.12;56.33
38786;BME280;24535;45.508;12.252;2022-09-21T04:55:08;102041.97;;;18.15;56.33
38786;BME280;24535;45.508;12.252;2022-09-21T04:57:34;102043.53;;;18.17;56.52
38786;BME280;24535;45.508;12.252;2022-09-21T05:00:00;102036.88;;;18.12;55.70
38786;BME280;24535;45.508;12.252;2022-09-21T05:02:26;102044.53;;;18.16;56.25
38786;BME280;24535;45.508;12.252;2022-09-21T05:04:51;102048.16;;;18.15;55.56
38786;BME280;24535;45.508;12.252;2022-09-21T05:07:17;102053.38;;;18.17;56.05
38786;BME280;24535;45.508;12.252;2022-09-21T05:09:42;102048.25;;;18.14;55.47
38786;BME280;24535;45.508;12.252;2022-09-21T05:12:27;102056.28;;;18.14;55.41
38786;BME280;24535;45.508;12.252;2022-09-21T05:14:52;102060.03;;;18.11;56.45
38786;BME280;24535;45.508;12.252;2022-09-21T05:17:20;102055.78;;;18.09;55.57
38786;BME280;24535;45.508;12.252;2022-09-21T05:19:47;102052.38;;;18.07;55.77
38786;BME280;24535;45.508;12.252;2022-09-21T05:22:13;102056.75;;;18.08;56.13
38786;BME280;24535;45.508;12.252;2022-09-21T05:24:38;102057.72;;;18.07;55.39
38786;BME280;24535;45.508;12.252;2022-09-21T05:27:04;102063.16;;;18.05;55.70
38786;BME280;24535;45.508;12.252;2022-09-21T05:29:29;102062.47;;;18.03;55.48
38786;BME280;24535;45.508;12.252;2022-09-21T05:35:00;102065.00;;;18.04;54.93
38786;BME280;24535;45.508;12.252;2022-09-21T05:37:51;102066.59;;;18.07;54.97
38786;BME280;24535;45.508;12.252;2022-09-21T05:40:19;102073.47;;;18.10;54.41
38786;BME280;24535;45.508;12.252;2022-09-21T05:42:45;102076.28;;;18.08;55.14
38786;BME280;24535;45.508;12.252;2022-09-21T05:45:15;102062.09;;;18.08;54.64
38786;BME280;24535;45.508;12.252;2022-09-21T05:56:28;102087.81;;;18.20;54.11
38786;BME280;24535;45.508;12.252;2022-09-21T06:04:02;102096.31;;;18.25;54.25
38786;BME280;24535;45.508;12.252;2022-09-21T06:06:28;102092.56;;;18.27;54.42
38786;BME280;24535;45.508;12.252;2022-09-21T06:08:53;102093.88;;;18.33;53.97
38786;BME280;24535;45.508;12.252;2022-09-21T06:11:19;102094.50;;;18.37;53.76
38786;BME280;24535;45.508;12.252;2022-09-21T06:13:44;102103.97;;;18.41;53.72
38786;BME280;24535;45.508;12.252;2022-09-21T06:16:10;102100.81;;;18.47;53.55
38786;BME280;24535;45.508;12.252;2022-09-21T06:18:39;102099.59;;;18.51;53.74
38786;BME280;24535;45.508;12.252;2022-09-21T06:21:08;102103.84;;;18.53;53.57
38786;BME280;24535;45.508;12.252;2022-09-21T06:23:34;102098.75;;;18.62;53.65
38786;BME280;24535;45.508;12.252;2022-09-21T06:26:00;102112.47;;;18.68;53.41
38786;BME280;24535;45.508;12.252;2022-09-21T06:28:25;102107.78;;;18.72;52.77
38786;BME280;24535;45.508;12.252;2022-09-21T06:30:53;102102.19;;;18.75;52.27
38786;BME280;24535;45.508;12.252;2022-09-21T06:33:19;102110.69;;;18.80;52.57
38786;BME280;24535;45.508;12.252;2022-09-21T06:36:05;102110.41;;;18.83;52.51
38786;BME280;24535;45.508;12.252;2022-09-21T06:38:31;102115.38;;;18.88;51.87
38786;BME280;24535;45.508;12.252;2022-09-21T06:41:00;102115.28;;;18.89;51.55
38786;BME280;24535;45.508;12.252;2022-09-21T06:43:27;102115.03;;;18.92;52.13
38786;BME280;24535;45.508;12.252;2022-09-21T06:45:54;102113.09;;;18.94;51.55
38786;BME280;24535;45.508;12.252;2022-09-21T06:48:20;102116.22;;;18.99;51.25
38786;BME280;24535;45.508;12.252;2022-09-21T06:50:46;102118.41;;;19.06;51.46
38786;BME280;24535;45.508;12.252;2022-09-21T06:53:11;102119.03;;;19.09;51.58
38786;BME280;24535;45.508;12.252;2022-09-21T06:55:37;102127.88;;;19.21;51.04
38786;BME280;24535;45.508;12.252;2022-09-21T06:58:03;102119.59;;;19.24;51.37
38786;BME280;24535;45.508;12.252;2022-09-21T07:00:30;102121.53;;;19.33;51.27
38786;BME280;24535;45.508;12.252;2022-09-21T07:02:55;102123.81;;;19.38;51.39
38786;BME280;24535;45.508;12.252;2022-09-21T07:05:21;102112.88;;;19.41;51.18
38786;BME280;24535;45.508;12.252;2022-09-21T07:07:46;102126.09;;;19.54;50.94
38786;BME280;24535;45.508;12.252;2022-09-21T07:10:12;102110.63;;;19.57;51.18
38786;BME280;24535;45.508;12.252;2022-09-21T07:12:37;102118.31;;;19.62;50.08
38786;BME280;24535;45.508;12.252;2022-09-21T07:15:03;102115.50;;;19.63;50.35
38786;BME280;24535;45.508;12.252;2022-09-21T07:17:31;102111.00;;;19.64;50.13
38786;BME280;24535;45.508;12.252;2022-09-21T07:19:57;102115.38;;;19.65;50.37
38786;BME280;24535;45.508;12.252;2022-09-21T07:22:22;102125.56;;;19.71;50.33
38786;BME280;24535;45.508;12.252;2022-09-21T07:24:48;102120.94;;;19.73;50.22
38786;BME280;24535;45.508;12.252;2022-09-21T07:27:16;102134.53;;;19.81;49.92
38786;BME280;24535;45.508;12.252;2022-09-21T07:29:41;102129.72;;;19.85;49.96
38786;BME280;24535;45.508;12.252;2022-09-21T07:32:07;102135.44;;;19.91;49.76
38786;BME280;24535;45.508;12.252;2022-09-21T07:34:34;102134.94;;;19.97;49.76
38786;BME280;24535;45.508;12.252;2022-09-21T07:37:01;102137.06;;;20.04;50.06
38786;BME280;24535;45.508;12.252;2022-09-21T07:39:27;102138.94;;;20.13;49.96
38786;BME280;24535;45.508;12.252;2022-09-21T07:41:52;102138.56;;;20.17;49.30
38786;BME280;24535;45.508;12.252;2022-09-21T07:44:18;102146.34;;;20.20;48.91
38786;BME280;24535;45.508;12.252;2022-09-21T07:46:49;102140.13;;;20.20;48.62
38786;BME280;24535;45.508;12.252;2022-09-21T07:49:15;102143.72;;;20.30;48.77
38786;BME280;24535;45.508;12.252;2022-09-21T07:51:40;102151.38;;;20.35;48.20
38786;BME280;24535;45.508;12.252;2022-09-21T07:54:08;102151.81;;;20.40;47.60
38786;BME280;24535;45.508;12.252;2022-09-21T07:56:36;102156.75;;;20.44;47.80
38786;BME280;24535;45.508;12.252;2022-09-21T07:59:02;102147.53;;;20.48;47.66
38786;BME280;24535;45.508;12.252;2022-09-21T08:01:32;102153.22;;;20.55;47.79
38786;BME280;24535;45.508;12.252;2022-09-21T08:03:58;102155.66;;;20.68;47.29
38786;BME280;24535;45.508;12.252;2022-09-21T08:06:26;102158.69;;;20.84;46.95
38786;BME280;24535;45.508;12.252;2022-09-21T08:08:52;102157.41;;;21.19;46.71
38786;BME280;24535;45.508;12.252;2022-09-21T08:11:20;102155.81;;;21.66;46.85
38786;BME280;24535;45.508;12.252;2022-09-21T08:13:54;102159.06;;;22.28;46.38
38786;BME280;24535;45.508;12.252;2022-09-21T08:16:20;102160.31;;;22.90;46.13
38786;BME280;24535;45.508;12.252;2022-09-21T08:18:46;102170.81;;;23.57;45.00
38786;BME280;24535;45.508;12.252;2022-09-21T08:21:12;102165.97;;;24.14;43.65
38786;BME280;24535;45.508;12.252;2022-09-21T08:23:38;102168.38;;;24.69;41.87
38786;BME280;24535;45.508;12.252;2022-09-21T08:26:09;102170.84;;;25.23;40.98
38786;BME280;24535;45.508;12.252;2022-09-21T08:28:36;102168.75;;;25.75;40.50
38786;BME280;24535;45.508;12.252;2022-09-21T08:31:03;102170.47;;;26.25;39.58
38786;BME280;24535;45.508;12.252;2022-09-21T08:33:29;102179.69;;;26.72;38.75
38786;BME280;24535;45.508;12.252;2022-09-21T08:35:57;102166.56;;;27.00;37.45
38786;BME280;24535;45.508;12.252;2022-09-21T08:38:23;102171.66;;;27.34;36.90
38786;BME280;24535;45.508;12.252;2022-09-21T08:40:50;102176.41;;;27.63;36.55
38786;BME280;24535;45.508;12.252;2022-09-21T08:43:26;102180.81;;;27.87;35.12
38786;BME280;24535;45.508;12.252;2022-09-21T08:45:54;102183.88;;;28.07;34.36
38786;BME280;24535;45.508;12.252;2022-09-21T08:48:25;102184.75;;;28.22;35.58
38786;BME280;24535;45.508;12.252;2022-09-21T08:50:55;102178.16;;;28.40;35.12
38786;BME280;24535;45.508;12.252;2022-09-21T08:55:47;102194.00;;;28.66;34.50
38786;BME280;24535;45.508;12.252;2022-09-21T08:58:22;102186.81;;;28.73;32.86
38786;BME280;24535;45.508;12.252;2022-09-21T09:01:01;102190.06;;;28.83;32.76
38786;BME280;24535;45.508;12.252;2022-09-21T09:06:00;102182.59;;;29.00;32.95
38786;BME280;24535;45.508;12.252;2022-09-21T09:17:16;102179.84;;;29.29;29.36
38786;BME280;24535;45.508;12.252;2022-09-21T09:19:46;102185.94;;;29.17;30.53
38786;BME280;24535;45.508;12.252;2022-09-21T09:22:19;102199.44;;;29.10;30.76
38786;BME280;24535;45.508;12.252;2022-09-21T09:24:51;102194.94;;;28.88;29.20
38786;BME280;24535;45.508;12.252;2022-09-21T09:27:34;102191.38;;;28.57;28.13
38786;BME280;24535;45.508;12.252;2022-09-21T09:37:51;102185.66;;;27.77;29.25
38786;BME280;24535;45.508;12.252;2022-09-21T09:41:05;102173.75;;;27.55;29.37
38786;BME280;24535;45.508;12.252;2022-09-21T09:48:48;102169.59;;;27.05;30.96
38786;BME280;24535;45.508;12.252;2022-09-21T09:51:19;102171.69;;;26.95;31.21
38786;BME280;24535;45.508;12.252;2022-09-21T09:53:44;102173.41;;;26.79;29.92
38786;BME280;24535;45.508;12.252;2022-09-21T09:56:11;102166.88;;;26.57;29.57
38786;BME280;24535;45.508;12.252;2022-09-21T09:59:01;102170.59;;;26.40;29.81
38786;BME280;24535;45.508;12.252;2022-09-21T10:04:05;102166.09;;;26.00;30.38
38786;BME280;24535;45.508;12.252;2022-09-21T10:06:31;102165.75;;;25.86;30.29
38786;BME280;24535;45.508;12.252;2022-09-21T10:08:57;102163.34;;;25.75;31.25
38786;BME280;24535;45.508;12.252;2022-09-21T10:11:33;102159.47;;;25.61;30.66
38786;BME280;24535;45.508;12.252;2022-09-21T10:14:09;102162.81;;;25.47;30.45
38786;BME280;24535;45.508;12.252;2022-09-21T10:16:42;102166.81;;;25.27;31.35
38786;BME280;24535;45.508;12.252;2022-09-21T10:19:15;102164.22;;;25.09;31.05
38786;BME280;24535;45.508;12.252;2022-09-21T10:21:43;102166.81;;;24.92;31.46
38786;BME280;24535;45.508;12.252;2022-09-21T10:24:29;102153.78;;;24.80;30.70
38786;BME280;24535;45.508;12.252;2022-09-21T10:27:06;102158.50;;;24.78;32.26
38786;BME280;24535;45.508;12.252;2022-09-21T10:29:43;102156.81;;;24.77;32.11
38786;BME280;24535;45.508;12.252;2022-09-21T10:34:43;102155.47;;;24.81;32.97
38786;BME280;24535;45.508;12.252;2022-09-21T10:37:29;102151.47;;;24.85;32.13
38786;BME280;24535;45.508;12.252;2022-09-21T10:39:55;102155.50;;;24.89;32.33
38786;BME280;24535;45.508;12.252;2022-09-21T10:42:24;102150.44;;;24.86;31.88
38786;BME280;24535;45.508;12.252;2022-09-21T10:44:52;102157.50;;;24.87;31.50
38786;BME280;24535;45.508;12.252;2022-09-21T10:49:54;102152.78;;;24.81;31.46
38786;BME280;24535;45.508;12.252;2022-09-21T10:52:23;102152.09;;;24.79;31.59
38786;BME280;24535;45.508;12.252;2022-09-21T10:54:52;102150.03;;;24.73;31.59
38786;BME280;24535;45.508;12.252;2022-09-21T10:57:21;102151.06;;;24.72;32.40
38786;BME280;24535;45.508;12.252;2022-09-21T10:59:48;102154.91;;;24.69;32.07
38786;BME280;24535;45.508;12.252;2022-09-21T11:02:32;102142.44;;;24.68;31.37
38786;BME280;24535;45.508;12.252;2022-09-21T11:05:13;102147.31;;;24.64;31.72
38786;BME280;24535;45.508;12.252;2022-09-21T11:13:37;102147.75;;;24.52;32.67
38786;BME280;24535;45.508;12.252;2022-09-21T11:16:34;102148.59;;;24.52;33.44
38786;BME280;24535;45.508;12.252;2022-09-21T11:24:29;102141.84;;;24.48;33.19
38786;BME280;24535;45.508;12.252;2022-09-21T11:27:06;102133.03;;;24.46;33.04
38786;BME280;24535;45.508;12.252;2022-09-21T11:29:59;102146.91;;;24.51;32.48
38786;BME280;24535;45.508;12.252;2022-09-21T11:35:34;102158.41;;;24.35;31.33
38786;BME280;24535;45.508;12.252;2022-09-21T11:38:19;102147.88;;;24.24;34.20
38786;BME280;24535;45.508;12.252;2022-09-21T12:00:21;102133.66;;;24.14;32.86
38786;BME280;24535;45.508;12.252;2022-09-21T12:14:16;102130.34;;;24.02;31.47
38786;BME280;24535;45.508;12.252;2022-09-21T12:22:21;102114.94;;;23.86;31.79
38786;BME280;24535;45.508;12.252;2022-09-21T12:24:51;102119.09;;;23.81;32.28
38786;BME280;24535;45.508;12.252;2022-09-21T12:27:47;102113.72;;;23.81;31.68
38786;BME280;24535;45.508;12.252;2022-09-21T12:30:19;102116.41;;;23.81;33.11
38786;BME280;24535;45.508;12.252;2022-09-21T12:38:02;102103.00;;;23.89;33.16
38786;BME280;24535;45.508;12.252;2022-09-21T12:40:38;102110.31;;;23.97;32.95
38786;BME280;24535;45.508;12.252;2022-09-21T12:45:54;102111.38;;;24.04;33.09
38786;BME280;24535;45.508;12.252;2022-09-21T12:48:34;102108.81;;;24.02;30.99
38786;BME280;24535;45.508;12.252;2022-09-21T12:51:09;102104.91;;;23.97;31.50
38786;BME280;24535;45.508;12.252;2022-09-21T12:53:39;102105.88;;;23.87;31.75
38786;BME280;24535;45.508;12.252;2022-09-21T13:07:18;102100.13;;;23.82;31.37
38786;BME280;24535;45.508;12.252;2022-09-21T13:09:48;102098.56;;;23.80;31.68
38786;BME280;24535;45.508;12.252;2022-09-21T13:12:36;102101.81;;;23.83;31.95
38786;BME280;24535;45.508;12.252;2022-09-21T13:15:30;102097.25;;;23.84;32.49
38786;BME280;24535;45.508;12.252;2022-09-21T13:18:01;102095.78;;;23.89;32.66
38786;BME280;24535;45.508;12.252;2022-09-21T13:20:33;102094.47;;;23.93;31.08
38786;BME280;24535;45.508;12.252;2022-09-21T13:23:01;102091.56;;;23.87;30.95
38786;BME280;24535;45.508;12.252;2022-09-21T13:25:28;102090.56;;;23.88;31.32
38786;BME280;24535;45.508;12.252;2022-09-21T13:30:29;102082.31;;;23.89;31.31
38786;BME280;24535;45.508;12.252;2022-09-21T13:32:57;102092.25;;;23.89;31.40
38786;BME280;24535;45.508;12.252;2022-09-21T13:44:13;102075.91;;;23.82;31.94
38786;BME280;24535;45.508;12.252;2022-09-21T13:51:31;102065.19;;;23.90;30.95
38786;BME280;24535;45.508;12.252;2022-09-21T13:53:58;102075.41;;;23.87;30.43
38786;BME280;24535;45.508;12.252;2022-09-21T13:56:26;102075.03;;;23.82;31.18
38786;BME280;24535;45.508;12.252;2022-09-21T13:58:59;102077.56;;;23.83;30.97
38786;BME280;24535;45.508;12.252;2022-09-21T14:01:34;102076.56;;;23.84;31.54
38786;BME280;24535;45.508;12.252;2022-09-21T14:04:25;102072.88;;;23.85;30.20
38786;BME280;24535;45.508;12.252;2022-09-21T14:06:53;102071.88;;;23.86;31.04
38786;BME280;24535;45.508;12.252;2022-09-21T14:09:29;102067.66;;;23.84;30.71
38786;BME280;24535;45.508;12.252;2022-09-21T14:12:05;102071.88;;;23.86;31.10
38786;BME280;24535;45.508;12.252;2022-09-21T14:14:36;102071.50;;;23.81;30.24
38786;BME280;24535;45.508;12.252;2022-09-21T14:17:04;102064.34;;;23.72;30.22
38786;BME280;24535;45.508;12.252;2022-09-21T14:24:38;102071.75;;;23.70;32.41
38786;BME280;24535;45.508;12.252;2022-09-21T14:27:28;102059.81;;;23.73;31.40
38786;BME280;24535;45.508;12.252;2022-09-21T14:34:56;102063.69;;;23.70;30.87
38786;BME280;24535;45.508;12.252;2022-09-21T14:37:40;102071.97;;;23.77;33.19
38786;BME280;24535;45.508;12.252;2022-09-21T14:40:19;102056.50;;;23.79;31.86
38786;BME280;24535;45.508;12.252;2022-09-21T14:42:47;102064.13;;;23.83;32.65
38786;BME280;24535;45.508;12.252;2022-09-21T14:45:16;102062.09;;;23.85;32.26
38786;BME280;24535;45.508;12.252;2022-09-21T14:51:02;102062.50;;;23.90;31.11
38786;BME280;24535;45.508;12.252;2022-09-21T15:02:32;102060.59;;;23.83;30.65
38786;BME280;24535;45.508;12.252;2022-09-21T15:05:10;102062.03;;;23.77;31.32
38786;BME280;24535;45.508;12.252;2022-09-21T15:18:31;102064.56;;;23.61;32.25
38786;BME280;24535;45.508;12.252;2022-09-21T15:21:03;102058.50;;;23.59;31.41
38786;BME280;24535;45.508;12.252;2022-09-21T15:26:09;102064.81;;;23.50;31.26
38786;BME280;24535;45.508;12.252;2022-09-21T15:28:37;102053.38;;;23.48;31.97
38786;BME280;24535;45.508;12.252;2022-09-21T15:31:04;102055.22;;;23.47;30.99
38786;BME280;24535;45.508;12.252;2022-09-21T15:33:36;102064.59;;;23.43;32.72
38786;BME280;24535;45.508;12.252;2022-09-21T15:36:02;102053.84;;;23.43;32.17
38786;BME280;24535;45.508;12.252;2022-09-21T15:38:32;102057.53;;;23.42;31.98
38786;BME280;24535;45.508;12.252;2022-09-21T15:41:00;102058.38;;;23.42;31.64
38786;BME280;24535;45.508;12.252;2022-09-21T15:43:26;102057.38;;;23.43;32.66
38786;BME280;24535;45.508;12.252;2022-09-21T15:46:03;102049.84;;;23.47;32.06
38786;BME280;24535;45.508;12.252;2022-09-21T15:48:37;102057.06;;;23.47;31.90
38786;BME280;24535;45.508;12.252;2022-09-21T15:53:44;102055.44;;;23.36;31.84
38786;BME280;24535;45.508;12.252;2022-09-21T15:56:21;102057.28;;;23.35;32.63
38786;BME280;24535;45.508;12.252;2022-09-21T15:58:50;102059.13;;;23.35;31.42
38786;BME280;24535;45.508;12.252;2022-09-21T16:01:20;102063.13;;;23.31;30.97
38786;BME280;24535;45.508;12.252;2022-09-21T16:04:01;102071.34;;;23.29;30.90
38786;BME280;24535;45.508;12.252;2022-09-21T16:06:34;102062.75;;;23.26;31.17
38786;BME280;24535;45.508;12.252;2022-09-21T16:11:49;102056.84;;;23.22;32.07
38786;BME280;24535;45.508;12.252;2022-09-21T16:14:16;102066.13;;;23.28;31.85